createdAt,value
2022-09-27T00:01:34.683Z,21.70
2022-09-27T00:04:04.244Z,21.70
2022-09-27T00:06:37.494Z,21.70
2022-09-27T00:09:11.285Z,21.70
2022-09-27T00:11:43.700Z,21.70
2022-09-27T00:14:14.678Z,21.70
2022-09-27T00:16:44.794Z,21.70
2022-09-27T00:19:16.371Z,21.70
2022-09-27T00:21:46.862Z,21.70
2022-09-27T00:24:18.320Z,21.70
2022-09-27T00:26:49.280Z,21.70
2022-09-27T00:29:20.355Z,21.70
2022-09-27T00:31:49.876Z,21.70
2022-09-27T00:34:21.957Z,21.70
2022-09-27T00:36:52.767Z,21.70
2022-09-27T00:39:22.012Z,21.70
2022-09-27T00:41:52.791Z,21.70
2022-09-27T00:45:01.531Z,21.70
2022-09-27T00:47:36.158Z,21.70
2022-09-27T00:50:15.123Z,21.60
2022-09-27T00:52:50.058Z,21.60
2022-09-27T00:55:23.519Z,21.60
2022-09-27T00:57:54.789Z,21.60
2022-09-27T01:00:24.933Z,21.60
2022-09-27T01:02:56.388Z,21.60
2022-09-27T01:05:29.573Z,21.60
2022-09-27T01:08:00.917Z,21.60
2022-09-27T01:10:38.803Z,21.60
2022-09-27T01:13:19.481Z,21.60
2022-09-27T01:15:55.389Z,21.60
2022-09-27T01:18:35.778Z,21.60
2022-09-27T01:21:35.386Z,21.60
2022-09-27T01:24:31.373Z,21.60
2022-09-27T01:27:39.275Z,21.60
2022-09-27T01:30:28.092Z,21.60
2022-09-27T01:33:12.473Z,21.60
2022-09-27T01:35:58.532Z,21.60
2022-09-27T01:38:35.670Z,21.60
2022-09-27T01:41:14.025Z,21.60
2022-09-27T01:43:49.993Z,21.60
2022-09-27T01:46:31.076Z,21.60
2022-09-27T01:49:18.848Z,21.60
2022-09-27T01:51:52.507Z,21.60
2022-09-27T01:54:29.083Z,21.60
2022-09-27T01:57:21.977Z,21.60
2022-09-27T01:59:54.943Z,21.60
2022-09-27T02:02:48.648Z,21.60
2022-09-27T02:05:37.465Z,21.60
2022-09-27T02:08:33.093Z,21.60
2022-09-27T02:11:11.175Z,21.60
2022-09-27T02:13:51.126Z,21.50
2022-09-27T02:16:54.989Z,21.60
2022-09-27T02:19:38.102Z,21.50
2022-09-27T02:22:16.529Z,21.50
2022-09-27T02:24:52.195Z,21.50
2022-09-27T02:27:28.980Z,21.50
2022-09-27T02:30:03.138Z,21.50
2022-09-27T02:32:34.682Z,21.50
2022-09-27T02:35:11.506Z,21.50
2022-09-27T02:37:40.819Z,21.50
2022-09-27T02:40:11.782Z,21.50
2022-09-27T02:42:44.361Z,21.50
2022-09-27T02:45:15.760Z,21.50
2022-09-27T02:48:04.935Z,21.50
2022-09-27T02:51:07.839Z,21.50
2022-09-27T02:53:49.253Z,21.50
2022-09-27T02:56:52.809Z,21.50
2022-09-27T03:00:06.810Z,21.50
2022-09-27T03:03:00.774Z,21.50
2022-09-27T03:05:40.091Z,21.50
2022-09-27T03:08:12.177Z,21.50
2022-09-27T03:10:42.091Z,21.50
2022-09-27T03:13:11.489Z,21.50
2022-09-27T03:15:40.800Z,21.50
2022-09-27T03:18:09.918Z,21.50
2022-09-27T03:21:01.999Z,21.50
2022-09-27T03:23:32.922Z,21.50
2022-09-27T03:26:02.285Z,21.50
2022-09-27T03:28:31.505Z,21.50
2022-09-27T03:31:01.052Z,21.50
2022-09-27T03:33:47.315Z,21.50
2022-09-27T03:36:16.760Z,21.50
2022-09-27T03:38:47.709Z,21.50
2022-09-27T03:41:20.099Z,21.50
2022-09-27T03:43:49.323Z,21.40
2022-09-27T03:46:18.762Z,21.50
2022-09-27T03:48:48.192Z,21.50
2022-09-27T03:51:17.808Z,21.50
2022-09-27T03:53:48.445Z,21.50
2022-09-27T03:56:17.622Z,21.50
2022-09-27T03:58:46.786Z,21.40
2022-09-27T04:01:17.042Z,21.40
2022-09-27T04:03:53.453Z,21.40
2022-09-27T04:06:31.831Z,21.40
2022-09-27T04:09:03.292Z,21.40
2022-09-27T04:11:52.392Z,21.40
2022-09-27T04:14:21.647Z,21.40
2022-09-27T04:17:10.707Z,21.40
2022-09-27T04:20:07.096Z,21.40
2022-09-27T04:22:41.772Z,21.40
2022-09-27T04:25:12.849Z,21.40
2022-09-27T04:27:46.901Z,21.40
2022-09-27T04:30:17.601Z,21.50
2022-09-27T04:33:21.812Z,21.40
2022-09-27T04:36:29.643Z,21.50
2022-09-27T04:39:09.171Z,21.50
2022-09-27T04:41:49.257Z,21.50
2022-09-27T04:44:18.527Z,21.50
2022-09-27T04:46:51.933Z,21.50
2022-09-27T04:49:21.219Z,21.50
2022-09-27T04:51:50.965Z,21.50
2022-09-27T04:54:20.343Z,21.50
2022-09-27T04:57:00.102Z,21.50
2022-09-27T04:59:29.401Z,21.50
2022-09-27T05:02:00.938Z,21.50
2022-09-27T05:05:06.931Z,21.50
2022-09-27T05:07:40.703Z,21.50
2022-09-27T05:10:15.615Z,21.60
2022-09-27T05:12:46.319Z,21.60
2022-09-27T05:15:18.041Z,21.50
2022-09-27T05:18:05.781Z,21.60
2022-09-27T05:20:35.037Z,21.60
2022-09-27T05:23:15.434Z,21.60
2022-09-27T05:25:44.906Z,21.60
2022-09-27T05:28:15.506Z,21.60
2022-09-27T05:30:45.957Z,21.60
2022-09-27T05:33:21.007Z,21.60
2022-09-27T05:35:57.984Z,21.60
2022-09-27T05:38:31.323Z,21.60
2022-09-27T05:41:04.460Z,21.50
2022-09-27T05:43:36.460Z,21.60
2022-09-27T05:46:06.363Z,21.50
2022-09-27T05:48:39.491Z,21.50
2022-09-27T05:51:09.809Z,21.50
2022-09-27T05:53:41.671Z,21.50
2022-09-27T05:56:19.276Z,21.50
2022-09-27T05:59:16.429Z,21.50
2022-09-27T06:02:04.415Z,21.50
2022-09-27T06:04:51.995Z,21.50
2022-09-27T06:07:44.688Z,21.50
2022-09-27T06:10:20.331Z,21.50
2022-09-27T06:12:50.574Z,21.50
2022-09-27T06:15:37.474Z,21.50
2022-09-27T06:18:08.315Z,21.50
2022-09-27T06:20:38.244Z,21.40
2022-09-27T06:23:08.965Z,21.40
2022-09-27T06:25:39.835Z,21.40
2022-09-27T06:28:27.859Z,21.40
2022-09-27T06:31:01.354Z,21.40
2022-09-27T06:33:40.472Z,21.40
2022-09-27T06:36:10.340Z,21.40
2022-09-27T06:38:41.167Z,21.40
2022-09-27T06:41:16.769Z,21.40
2022-09-27T06:44:13.318Z,21.40
2022-09-27T06:47:02.618Z,21.40
2022-09-27T06:49:57.834Z,21.40
2022-09-27T06:52:28.323Z,21.30
2022-09-27T06:54:57.551Z,21.30
2022-09-27T06:57:41.072Z,21.30
2022-09-27T07:00:24.888Z,21.30
2022-09-27T07:03:14.804Z,21.30
2022-09-27T07:06:24.263Z,21.30
2022-09-27T07:09:15.957Z,21.30
2022-09-27T07:11:46.148Z,21.30
2022-09-27T07:14:17.721Z,21.30
2022-09-27T07:16:47.529Z,21.30
2022-09-27T07:19:18.691Z,21.30
2022-09-27T07:21:52.881Z,21.30
2022-09-27T07:24:22.327Z,21.30
2022-09-27T07:26:52.226Z,21.30
2022-09-27T07:29:23.917Z,21.30
2022-09-27T07:31:55.508Z,21.30
2022-09-27T07:34:26.303Z,21.40
2022-09-27T07:36:59.838Z,21.40
2022-09-27T07:39:30.245Z,21.40
2022-09-27T07:41:59.572Z,21.40
2022-09-27T07:44:28.809Z,21.40
2022-09-27T07:47:27.740Z,21.40
2022-09-27T07:50:24.680Z,21.40
2022-09-27T07:53:14.287Z,21.30
2022-09-27T07:56:12.710Z,21.30
2022-09-27T07:58:42.231Z,21.40
2022-09-27T08:01:12.095Z,21.40
2022-09-27T08:03:41.480Z,21.40
2022-09-27T08:06:12.571Z,21.40
2022-09-27T08:08:42.358Z,21.40
2022-09-27T08:11:15.580Z,21.40
2022-09-27T08:13:48.077Z,21.40
2022-09-27T08:16:17.668Z,21.40
2022-09-27T08:19:05.758Z,21.40
2022-09-27T08:21:58.915Z,21.40
2022-09-27T08:24:49.010Z,21.40
2022-09-27T08:27:36.652Z,21.40
2022-09-27T08:30:19.781Z,21.40
2022-09-27T08:32:49.017Z,21.40
2022-09-27T08:35:18.375Z,21.40
2022-09-27T08:37:56.680Z,21.40
2022-09-27T08:40:33.114Z,21.40
2022-09-27T08:43:12.457Z,21.40
2022-09-27T08:45:52.811Z,21.40
2022-09-27T08:48:23.102Z,21.40
2022-09-27T08:50:52.935Z,21.40
2022-09-27T08:53:29.497Z,21.40
2022-09-27T08:56:04.021Z,21.40
2022-09-27T08:58:46.733Z,21.40
2022-09-27T09:01:36.634Z,21.40
2022-09-27T09:04:13.405Z,21.40
2022-09-27T09:06:50.821Z,21.40
2022-09-27T09:09:31.767Z,21.40
2022-09-27T09:12:47.753Z,21.50
2022-09-27T09:15:55.577Z,21.40
2022-09-27T09:18:40.312Z,21.40
2022-09-27T09:21:28.280Z,21.40
2022-09-27T09:24:15.907Z,21.40
2022-09-27T09:26:57.327Z,21.40
2022-09-27T09:29:41.459Z,21.40
2022-09-27T09:32:24.363Z,21.40
2022-09-27T09:34:59.499Z,21.40
2022-09-27T09:37:37.952Z,21.40
2022-09-27T09:40:17.060Z,21.40
2022-09-27T09:42:54.287Z,21.40
2022-09-27T09:45:28.010Z,21.40
2022-09-27T09:48:06.430Z,21.40
2022-09-27T09:50:42.476Z,21.40
2022-09-27T09:53:17.921Z,21.40
2022-09-27T09:55:52.737Z,21.40
2022-09-27T09:58:29.522Z,21.40
2022-09-27T10:01:17.763Z,21.40
2022-09-27T10:03:47.626Z,21.40
2022-09-27T10:06:19.484Z,21.40
2022-09-27T10:08:54.003Z,21.40
2022-09-27T10:11:42.665Z,21.40
2022-09-27T10:14:19.021Z,21.40
2022-09-27T10:16:51.365Z,21.40
2022-09-27T10:19:29.855Z,21.40
2022-09-27T10:22:03.829Z,21.40
2022-09-27T10:24:58.535Z,21.40
2022-09-27T10:27:48.874Z,21.40
2022-09-27T10:30:31.846Z,21.30
2022-09-27T10:33:08.017Z,21.30
2022-09-27T10:35:49.798Z,21.30
2022-09-27T10:38:28.754Z,21.30
2022-09-27T10:41:26.716Z,21.30
2022-09-27T10:44:25.248Z,21.30
2022-09-27T10:47:10.387Z,21.40
2022-09-27T10:50:05.550Z,21.40
2022-09-27T10:53:06.346Z,21.40
2022-09-27T10:55:39.992Z,21.30
2022-09-27T10:58:20.288Z,21.30
2022-09-27T11:00:58.227Z,21.40
2022-09-27T11:03:30.122Z,21.40
2022-09-27T11:06:00.873Z,21.40
2022-09-27T11:08:32.939Z,21.40
2022-09-27T11:11:21.406Z,21.30
2022-09-27T11:14:04.607Z,21.40
2022-09-27T11:16:48.709Z,21.40
2022-09-27T11:19:36.312Z,21.30
2022-09-27T11:22:14.468Z,21.40
2022-09-27T11:24:58.172Z,21.30
2022-09-27T11:27:41.165Z,21.40
2022-09-27T11:30:14.255Z,21.40
2022-09-27T11:33:51.058Z,21.40
2022-09-27T11:36:35.282Z,21.40
2022-09-27T11:39:10.699Z,21.30
2022-09-27T11:42:06.211Z,21.30
2022-09-27T11:45:19.842Z,21.30
2022-09-27T11:48:00.785Z,21.30
2022-09-27T11:51:00.323Z,21.30
2022-09-27T11:53:45.842Z,21.30
2022-09-27T11:56:25.891Z,21.30
2022-09-27T11:59:10.049Z,21.30
2022-09-27T12:01:46.773Z,21.30
2022-09-27T12:04:44.269Z,21.30
2022-09-27T12:07:23.240Z,21.30
2022-09-27T12:09:58.425Z,21.30
2022-09-27T12:12:32.824Z,21.30
2022-09-27T12:15:07.164Z,21.30
2022-09-27T12:17:42.904Z,21.30
2022-09-27T12:20:20.736Z,21.30
2022-09-27T12:22:59.731Z,21.30
2022-09-27T12:26:04.912Z,21.30
2022-09-27T12:28:41.088Z,21.30
2022-09-27T12:31:28.832Z,21.30
2022-09-27T12:34:06.370Z,21.30
2022-09-27T12:36:43.910Z,21.30
2022-09-27T12:39:20.792Z,21.30
2022-09-27T12:42:02.396Z,21.30
2022-09-27T12:44:47.398Z,21.30
2022-09-27T12:47:56.292Z,21.30
2022-09-27T12:50:33.301Z,21.30
2022-09-27T12:53:08.061Z,21.30
2022-09-27T12:55:57.043Z,21.30
2022-09-27T12:58:56.809Z,21.30
2022-09-27T13:01:41.708Z,21.30
2022-09-27T13:04:41.966Z,21.30
2022-09-27T13:07:24.899Z,21.30
2022-09-27T13:10:26.382Z,21.30
2022-09-27T13:13:00.583Z,21.30
2022-09-27T13:15:34.452Z,21.30
2022-09-27T13:18:06.924Z,21.30
2022-09-27T13:20:49.404Z,21.30
2022-09-27T13:23:58.135Z,21.30
2022-09-27T13:26:50.293Z,21.40
2022-09-27T13:29:34.498Z,21.40
2022-09-27T13:32:29.139Z,21.40
2022-09-27T13:35:21.933Z,21.40
2022-09-27T13:38:23.865Z,21.40
2022-09-27T13:40:57.046Z,21.40
2022-09-27T13:43:52.360Z,21.40
2022-09-27T13:46:30.708Z,21.40
2022-09-27T13:49:06.257Z,21.40
2022-09-27T13:52:05.286Z,21.40
2022-09-27T13:54:42.068Z,21.40
2022-09-27T13:57:45.750Z,21.40
2022-09-27T14:00:22.656Z,21.40
2022-09-27T14:03:03.951Z,21.40
2022-09-27T14:05:39.882Z,21.40
2022-09-27T14:08:21.752Z,21.30
2022-09-27T14:10:51.279Z,21.40
2022-09-27T14:13:22.097Z,21.40
2022-09-27T14:16:04.969Z,21.40
2022-09-27T14:18:44.880Z,21.40
2022-09-27T14:21:24.089Z,21.40
2022-09-27T14:24:25.202Z,21.40
2022-09-27T14:27:07.747Z,21.40
2022-09-27T14:29:42.610Z,21.40
2022-09-27T14:32:17.827Z,21.40
2022-09-27T14:35:29.344Z,21.30
2022-09-27T14:38:15.703Z,21.30
2022-09-27T14:40:59.905Z,21.30
2022-09-27T14:43:30.713Z,21.30
2022-09-27T14:46:02.645Z,21.30
2022-09-27T14:48:33.694Z,21.30
2022-09-27T14:51:07.591Z,21.30
2022-09-27T14:53:45.978Z,21.30
2022-09-27T14:56:18.511Z,21.30
2022-09-27T14:58:48.581Z,21.30
2022-09-27T15:01:20.310Z,21.30
2022-09-27T15:03:50.341Z,21.30
2022-09-27T15:06:20.255Z,21.30
2022-09-27T15:08:51.190Z,21.30
2022-09-27T15:11:20.747Z,21.40
2022-09-27T15:13:55.218Z,21.40
2022-09-27T15:16:25.523Z,21.40
2022-09-27T15:19:03.900Z,21.40
2022-09-27T15:21:35.481Z,21.40
2022-09-27T15:24:06.443Z,21.30
2022-09-27T15:26:39.532Z,21.30
2022-09-27T15:29:19.199Z,21.40
2022-09-27T15:31:59.702Z,21.40
2022-09-27T15:34:30.156Z,21.40
2022-09-27T15:37:01.060Z,21.40
2022-09-27T15:39:34.375Z,21.40
2022-09-27T15:42:07.652Z,21.40
2022-09-27T15:44:41.015Z,21.40
2022-09-27T15:47:43.900Z,21.40
2022-09-27T15:50:41.485Z,21.40
2022-09-27T15:53:11.853Z,21.40
2022-09-27T15:55:45.296Z,21.40
2022-09-27T15:58:20.085Z,21.40
2022-09-27T16:00:53.971Z,21.40
2022-09-27T16:03:25.479Z,21.40
2022-09-27T16:05:56.600Z,21.40
2022-09-27T16:08:26.597Z,21.40
2022-09-27T16:10:59.165Z,21.40
2022-09-27T16:13:32.991Z,21.40
2022-09-27T16:16:04.392Z,21.40
2022-09-27T16:18:34.113Z,21.40
2022-09-27T16:21:03.376Z,21.40
2022-09-27T16:23:32.670Z,21.40
2022-09-27T16:26:03.256Z,21.40
2022-09-27T16:28:32.479Z,21.30
2022-09-27T16:31:07.018Z,21.30
2022-09-27T16:33:37.013Z,21.30
2022-09-27T16:36:14.770Z,21.30
2022-09-27T16:38:44.515Z,21.40
2022-09-27T16:41:15.161Z,21.40
2022-09-27T16:43:45.364Z,21.30
2022-09-27T16:46:18.967Z,21.30
2022-09-27T16:48:49.745Z,21.30
2022-09-27T16:51:38.651Z,21.30
2022-09-27T16:54:08.893Z,21.30
2022-09-27T16:56:39.959Z,21.30
2022-09-27T16:59:09.841Z,21.30
2022-09-27T17:01:39.054Z,21.30
2022-09-27T17:04:08.443Z,21.30
2022-09-27T17:06:37.646Z,21.30
2022-09-27T17:09:07.259Z,21.30
2022-09-27T17:11:38.485Z,21.30
2022-09-27T17:14:07.801Z,21.30
2022-09-27T17:16:37.058Z,21.30
2022-09-27T17:19:06.321Z,21.30
2022-09-27T17:21:38.167Z,21.30
2022-09-27T17:24:08.084Z,21.30
2022-09-27T17:26:39.131Z,21.30
2022-09-27T17:29:08.666Z,21.30
2022-09-27T17:31:40.338Z,21.30
2022-09-27T17:34:12.564Z,21.30
2022-09-27T17:36:43.661Z,21.30
2022-09-27T17:39:14.811Z,21.30
2022-09-27T17:41:45.684Z,21.30
2022-09-27T17:44:18.505Z,21.30
2022-09-27T17:47:08.389Z,21.30
2022-09-27T17:49:54.913Z,21.30
2022-09-27T17:52:25.804Z,21.30
2022-09-27T17:54:57.643Z,21.30
2022-09-27T17:57:28.351Z,21.30
2022-09-27T17:59:58.011Z,21.30
2022-09-27T18:02:27.866Z,21.20
2022-09-27T18:04:57.203Z,21.30
2022-09-27T18:07:26.560Z,21.30
2022-09-27T18:09:55.845Z,21.30
2022-09-27T18:12:32.049Z,21.20
2022-09-27T18:15:02.922Z,21.20
2022-09-27T18:17:32.380Z,21.20
2022-09-27T18:20:02.551Z,21.20
2022-09-27T18:22:32.390Z,21.20
2022-09-27T18:25:01.628Z,21.30
2022-09-27T18:27:30.801Z,21.30
2022-09-27T18:30:03.548Z,21.30
2022-09-27T18:32:32.877Z,21.30
2022-09-27T18:35:02.034Z,21.20
2022-09-27T18:37:31.726Z,21.20
2022-09-27T18:40:01.003Z,21.20
2022-09-27T18:42:31.324Z,21.20
2022-09-27T18:45:02.001Z,21.20
2022-09-27T18:47:31.237Z,21.20
2022-09-27T18:50:00.683Z,21.20
2022-09-27T18:52:29.831Z,21.20
2022-09-27T18:54:59.540Z,21.20
2022-09-27T18:57:28.853Z,21.30
2022-09-27T18:59:58.483Z,21.30
2022-09-27T19:02:29.194Z,21.20
2022-09-27T19:04:58.530Z,21.20
2022-09-27T19:07:27.687Z,21.20
2022-09-27T19:09:57.033Z,21.20
2022-09-27T19:12:26.703Z,21.20
2022-09-27T19:14:56.032Z,21.20
2022-09-27T19:17:25.339Z,21.20
2022-09-27T19:19:56.020Z,21.20
2022-09-27T19:22:25.293Z,21.20
2022-09-27T19:24:54.445Z,21.20
2022-09-27T19:27:24.256Z,21.20
2022-09-27T19:29:59.167Z,21.20
2022-09-27T19:32:28.481Z,21.20
2022-09-27T19:34:59.281Z,21.20
2022-09-27T19:37:28.551Z,21.20
2022-09-27T19:39:57.917Z,21.20
2022-09-27T19:42:27.173Z,21.20
2022-09-27T19:44:56.266Z,21.20
2022-09-27T19:47:26.004Z,21.20
2022-09-27T19:49:55.402Z,21.20
2022-09-27T19:52:27.442Z,21.20
2022-09-27T19:54:56.597Z,21.30
2022-09-27T19:57:25.733Z,21.30
2022-09-27T19:59:55.128Z,21.30
2022-09-27T20:02:24.700Z,21.30
2022-09-27T20:04:55.330Z,21.30
2022-09-27T20:07:26.205Z,21.30
2022-09-27T20:09:55.711Z,21.30
2022-09-27T20:12:25.279Z,21.30
2022-09-27T20:14:54.699Z,21.30
2022-09-27T20:17:24.160Z,21.30
2022-09-27T20:19:53.335Z,21.30
2022-09-27T20:22:22.727Z,21.30
2022-09-27T20:24:53.420Z,21.30
2022-09-27T20:27:22.716Z,21.30
2022-09-27T20:29:51.921Z,21.30
2022-09-27T20:32:27.936Z,21.30
2022-09-27T20:34:58.005Z,21.30
2022-09-27T20:37:27.318Z,21.30
2022-09-27T20:39:59.023Z,21.30
2022-09-27T20:42:28.298Z,21.30
2022-09-27T20:44:57.603Z,21.30
2022-09-27T20:47:26.793Z,21.30
2022-09-27T20:49:56.019Z,21.30
2022-09-27T20:52:25.345Z,21.30
2022-09-27T20:54:54.550Z,21.30
2022-09-27T20:57:46.277Z,21.30
2022-09-27T21:00:15.626Z,21.30
2022-09-27T21:02:44.711Z,21.30
2022-09-27T21:05:14.056Z,21.30
2022-09-27T21:07:43.141Z,21.30
2022-09-27T21:10:12.515Z,21.30
2022-09-27T21:12:43.024Z,21.30
2022-09-27T21:15:12.266Z,21.30
2022-09-27T21:17:41.407Z,21.30
2022-09-27T21:20:11.070Z,21.30
2022-09-27T21:22:40.268Z,21.30
2022-09-27T21:25:10.395Z,21.30
2022-09-27T21:27:39.515Z,21.30
2022-09-27T21:30:11.690Z,21.30
2022-09-27T21:32:40.856Z,21.20
2022-09-27T21:35:10.663Z,21.30
2022-09-27T21:37:39.933Z,21.30
2022-09-27T21:40:10.089Z,21.30
2022-09-27T21:42:39.278Z,21.30
2022-09-27T21:45:11.108Z,21.30
2022-09-27T21:47:40.341Z,21.30
2022-09-27T21:50:10.312Z,21.30
2022-09-27T21:52:39.371Z,21.30
2022-09-27T21:55:09.380Z,21.30
2022-09-27T21:57:38.641Z,21.20
2022-09-27T22:00:17.165Z,21.20
2022-09-27T22:02:46.377Z,21.20
2022-09-27T22:05:15.587Z,21.20
2022-09-27T22:07:44.776Z,21.20
2022-09-27T22:10:14.102Z,21.20
2022-09-27T22:12:43.212Z,21.20
2022-09-27T22:15:12.572Z,21.20
2022-09-27T22:17:43.084Z,21.20
2022-09-27T22:20:12.260Z,21.20
2022-09-27T22:22:41.377Z,21.20
2022-09-27T22:25:10.959Z,21.20
2022-09-27T22:27:40.093Z,21.20
2022-09-27T22:30:10.268Z,21.20
2022-09-27T22:32:39.987Z,21.20
2022-09-27T22:35:11.237Z,21.10
2022-09-27T22:37:40.382Z,21.20
2022-09-27T22:40:10.460Z,21.10
2022-09-27T22:42:39.796Z,21.10
2022-09-27T22:45:10.424Z,21.10
2022-09-27T22:47:39.857Z,21.10
2022-09-27T22:50:11.080Z,21.10
2022-09-27T22:52:40.193Z,21.10
2022-09-27T22:55:10.303Z,21.10
2022-09-27T22:57:39.448Z,21.10
2022-09-27T23:00:09.305Z,21.10
2022-09-27T23:02:38.443Z,21.10
2022-09-27T23:05:10.927Z,21.10
2022-09-27T23:07:40.175Z,21.10
2022-09-27T23:10:09.978Z,21.10
2022-09-27T23:12:39.136Z,21.10
2022-09-27T23:15:09.782Z,21.10
2022-09-27T23:17:38.966Z,21.10
2022-09-27T23:20:10.633Z,21.10
2022-09-27T23:22:39.742Z,21.10
2022-09-27T23:25:09.835Z,21.10
2022-09-27T23:27:45.360Z,21.10
2022-09-27T23:30:15.374Z,21.10
2022-09-27T23:32:45.943Z,21.00
2022-09-27T23:35:17.093Z,21.00
2022-09-27T23:37:46.222Z,21.00
2022-09-27T23:40:15.558Z,21.00
2022-09-27T23:42:44.715Z,21.00
2022-09-27T23:45:16.031Z,21.00
2022-09-27T23:47:45.192Z,21.00
2022-09-27T23:50:15.808Z,21.00
2022-09-27T23:52:45.047Z,21.00
2022-09-27T23:55:14.140Z,21.00
2022-09-27T23:57:43.491Z,21.00
